Time;durP1;ratioP1;P1;durP2;ratioP2;P2;SDS_P1;SDS_P2;PMS_P1;PMS_P2;Temp;Humidity;BMP_temperature;BMP_pressure;BME280_temperature;BME280_humidity;BME280_pressure;Samples;Min_cycle;Max_cycle;Signal;HPM_P1;HPM_P2
2022/04/30 09:20:39;;;;;;;11.23;7.35;;;9.50;94.20;;;;;;5094525;27;1286901;-48
2022/04/30 09:23:06;;;;;;;10.90;7.32;;;9.60;94.80;;;;;;5114749;28;20032;-51
2022/04/30 09:25:32;;;;;;;13.93;6.60;;;9.70;93.90;;;;;;5091116;28;20067;-50
2022/04/30 09:28:03;;;;;;;11.00;6.90;;;9.80;93.80;;;;;;5122674;28;20036;-50
2022/04/30 09:30:31;;;;;;;11.80;7.20;;;9.90;93.60;;;;;;5105802;28;20036;-52
2022/04/30 09:32:58;;;;;;;10.73;7.50;;;10.00;93.40;;;;;;5091570;28;20115;-51
2022/04/30 09:38:11;;;;;;;9.73;6.88;;;10.10;93.30;;;;;;5098399;28;20048;-49
2022/04/30 09:40:38;;;;;;;12.32;7.30;;;10.30;92.90;;;;;;5099855;28;20037;-52
2022/04/30 09:43:05;;;;;;;10.40;6.70;;;10.40;92.60;;;;;;5093113;28;20128;-49
2022/04/30 09:45:32;;;;;;;11.15;6.47;;;10.50;92.80;;;;;;5103314;28;20046;-49
2022/04/30 09:47:59;;;;;;;9.70;6.38;;;10.50;92.20;;;;;;5100880;28;20043;-52
2022/04/30 09:55:57;;;;;;;10.57;6.35;;;10.60;92.40;;;;;;5102803;28;20036;-51
2022/04/30 09:58:24;;;;;;;10.38;6.38;;;10.60;92.40;;;;;;5090158;28;20040;-54
2022/04/30 10:00:51;;;;;;;10.23;7.00;;;10.80;92.10;;;;;;5090344;28;20033;-50
2022/04/30 10:03:17;;;;;;;10.77;7.50;;;10.80;91.70;;;;;;5105337;28;20031;-53
2022/04/30 10:05:44;;;;;;;9.15;6.00;;;10.90;91.80;;;;;;5098702;28;20442;-51
2022/04/30 10:08:11;;;;;;;8.50;5.75;;;10.90;91.50;;;;;;5090112;28;20416;-54
2022/04/30 10:10:38;;;;;;;8.07;6.18;;;11.00;91.50;;;;;;5093349;28;20051;-48
2022/04/30 10:13:05;;;;;;;10.38;6.50;;;11.10;91.50;;;;;;5089914;28;20214;-52
2022/04/30 10:15:31;;;;;;;9.40;5.95;;;11.10;91.30;;;;;;5089999;28;20487;-56
2022/04/30 10:17:58;;;;;;;11.10;6.63;;;11.20;91.40;;;;;;5095292;28;20036;-53
2022/04/30 10:20:29;;;;;;;9.82;6.10;;;11.20;91.20;;;;;;5097701;28;20525;-48
2022/04/30 10:22:56;;;;;;;8.70;6.30;;;11.20;90.80;;;;;;5100874;28;20031;-52
2022/04/30 10:25:22;;;;;;;11.02;7.15;;;11.20;90.70;;;;;;5095067;28;20146;-49
2022/04/30 10:27:49;;;;;;;9.02;6.63;;;11.30;90.70;;;;;;5096086;28;20036;-47
2022/04/30 10:30:16;;;;;;;10.30;6.55;;;11.30;90.80;;;;;;5097093;28;20089;-49
2022/04/30 10:32:43;;;;;;;8.25;6.35;;;11.40;91.00;;;;;;5089344;28;20164;-46
2022/04/30 10:35:09;;;;;;;12.32;6.35;;;11.50;90.40;;;;;;5096173;28;20067;-53
2022/04/30 10:37:36;;;;;;;9.23;6.53;;;11.70;90.70;;;;;;5077346;28;20041;-50
2022/04/30 10:40:03;;;;;;;10.82;6.50;;;11.80;90.50;;;;;;5075968;28;20041;-49
2022/04/30 10:42:29;;;;;;;10.10;7.35;;;11.90;89.70;;;;;;5080904;28;20055;-53
2022/04/30 10:44:57;;;;;;;11.10;5.93;;;11.90;89.90;;;;;;5089523;28;20048;-50
2022/04/30 10:47:25;;;;;;;9.43;6.22;;;11.90;89.80;;;;;;5086244;28;20039;-47
2022/04/30 10:49:53;;;;;;;7.72;5.72;;;11.90;90.00;;;;;;5083117;28;20040;-52
2022/04/30 10:52:25;;;;;;;7.47;5.57;;;12.00;89.60;;;;;;5084836;28;20075;-49
2022/04/30 10:54:54;;;;;;;8.73;5.85;;;12.10;89.90;;;;;;5089835;28;20059;-51
2022/04/30 10:57:21;;;;;;;14.23;5.40;;;12.20;89.30;;;;;;5082135;28;20119;-51
2022/04/30 10:59:48;;;;;;;7.28;5.90;;;12.40;87.90;;;;;;5084471;28;20508;-51
2022/04/30 11:02:14;;;;;;;9.93;6.65;;;12.40;86.20;;;;;;5091444;28;20095;-50
2022/04/30 11:04:41;;;;;;;10.23;6.07;;;12.30;86.50;;;;;;5081639;28;20052;-50
2022/04/30 11:07:08;;;;;;;11.02;6.22;;;12.30;87.60;;;;;;5085342;28;20044;-46
2022/04/30 11:09:35;;;;;;;10.38;6.32;;;12.30;86.70;;;;;;5077062;28;20037;-48
2022/04/30 11:12:01;;;;;;;8.73;6.30;;;12.30;86.90;;;;;;5085533;28;20559;-51
2022/04/30 11:14:28;;;;;;;15.00;6.43;;;12.30;87.70;;;;;;5082683;28;20043;-51
2022/04/30 11:16:55;;;;;;;11.38;6.50;;;12.40;86.70;;;;;;5077566;28;20037;-48
2022/04/30 11:19:23;;;;;;;8.65;5.95;;;12.50;85.80;;;;;;5083271;28;20484;-49
2022/04/30 11:21:50;;;;;;;14.15;6.30;;;12.50;85.20;;;;;;5084741;28;20041;-51
2022/04/30 11:24:17;;;;;;;9.13;5.88;;;12.60;84.90;;;;;;5087039;28;20044;-52
2022/04/30 11:26:43;;;;;;;9.90;6.28;;;12.60;85.40;;;;;;5088898;28;20076;-46
2022/04/30 11:29:10;;;;;;;8.55;5.82;;;12.70;85.10;;;;;;5084920;28;20052;-50
2022/04/30 11:31:37;;;;;;;8.88;5.75;;;12.80;84.30;;;;;;5078966;28;20120;-49
2022/04/30 11:34:04;;;;;;;8.98;5.60;;;12.80;84.20;;;;;;5085833;28;20123;-49
2022/04/30 11:36:30;;;;;;;9.35;5.97;;;12.90;83.60;;;;;;5081359;28;20083;-50
2022/04/30 11:38:58;;;;;;;8.50;5.93;;;12.90;82.80;;;;;;5083119;28;20036;-52
2022/04/30 11:41:25;;;;;;;7.97;6.10;;;12.90;82.90;;;;;;5086753;28;20123;-49
2022/04/30 11:43:52;;;;;;;9.32;6.35;;;13.00;82.00;;;;;;5078209;28;20056;-52
2022/04/30 11:46:19;;;;;;;7.13;5.95;;;12.90;81.90;;;;;;5088773;28;20028;-52
2022/04/30 11:48:45;;;;;;;7.75;6.00;;;12.90;82.80;;;;;;5077214;28;20106;-52
2022/04/30 11:51:12;;;;;;;10.05;5.68;;;12.90;82.30;;;;;;5088567;28;20483;-51
2022/04/30 11:53:39;;;;;;;8.27;5.88;;;12.90;81.80;;;;;;5083411;28;20040;-52
2022/04/30 11:56:05;;;;;;;7.65;5.78;;;13.00;81.90;;;;;;5079488;28;20067;-49
2022/04/30 11:58:32;;;;;;;9.35;6.07;;;13.20;82.50;;;;;;5089112;28;20047;-46
2022/04/30 12:01:07;;;;;;;10.32;5.88;;;13.40;81.30;;;;;;5075841;28;20094;-48
2022/04/30 12:03:34;;;;;;;12.18;6.10;;;13.60;81.40;;;;;;5081006;28;20089;-52
2022/04/30 12:06:01;;;;;;;8.60;5.72;;;13.70;80.10;;;;;;5082420;28;20040;-49
2022/04/30 12:08:28;;;;;;;8.43;5.90;;;13.70;79.40;;;;;;5079359;28;20051;-51
2022/04/30 12:10:55;;;;;;;9.25;5.90;;;13.80;79.40;;;;;;5081061;28;20068;-47
2022/04/30 12:13:25;;;;;;;8.80;6.28;;;13.80;78.60;;;;;;5079951;28;20033;-49
2022/04/30 12:15:52;;;;;;;8.65;5.57;;;13.70;77.00;;;;;;5079709;28;20071;-51
2022/04/30 12:26:35;;;;;;;6.78;5.55;;;13.80;77.70;;;;;;5081662;28;20039;-49
2022/04/30 12:29:04;;;;;;;9.90;5.75;;;13.90;77.70;;;;;;5075157;28;20466;-47
2022/04/30 12:31:31;;;;;;;9.02;5.50;;;14.00;77.70;;;;;;5085427;28;20028;-51
2022/04/30 12:33:58;;;;;;;8.15;5.15;;;14.10;75.20;;;;;;5080966;28;20492;-54
2022/04/30 12:36:25;;;;;;;9.35;4.90;;;14.10;74.80;;;;;;5076519;28;20041;-48
2022/04/30 12:38:51;;;;;;;6.80;4.78;;;14.10;74.20;;;;;;5081250;28;20036;-52
2022/04/30 12:41:18;;;;;;;7.25;4.90;;;14.20;73.70;;;;;;5083354;28;20040;-52
2022/04/30 12:43:45;;;;;;;8.13;4.70;;;14.20;74.60;;;;;;5079288;28;20070;-53
2022/04/30 12:46:12;;;;;;;7.65;5.05;;;14.20;72.40;;;;;;5073884;28;20048;-51
2022/04/30 12:48:39;;;;;;;9.45;5.07;;;14.20;73.30;;;;;;5085052;28;20044;-51
2022/04/30 12:51:08;;;;;;;9.15;5.20;;;14.30;73.40;;;;;;5079722;28;20036;-51
2022/04/30 12:53:35;;;;;;;8.80;5.20;;;14.30;73.60;;;;;;5068008;28;20140;-48
2022/04/30 12:56:01;;;;;;;6.53;5.07;;;14.30;73.20;;;;;;5074685;28;20067;-49
2022/04/30 12:58:28;;;;;;;7.10;4.85;;;14.20;72.00;;;;;;5078280;28;20040;-52
2022/04/30 13:00:55;;;;;;;9.07;5.57;;;14.10;73.50;;;;;;5082765;28;20039;-48
2022/04/30 13:03:21;;;;;;;10.27;4.97;;;14.20;72.90;;;;;;5090186;28;20044;-53
2022/04/30 13:05:48;;;;;;;6.50;5.70;;;14.20;72.50;;;;;;5085288;28;20453;-51
2022/04/30 13:08:15;;;;;;;7.63;4.70;;;14.30;72.80;;;;;;5079392;28;20086;-54
2022/04/30 13:13:37;;;;;;;7.25;4.65;;;14.50;72.90;;;;;;5086149;28;20048;-52
2022/04/30 13:16:04;;;;;;;8.27;4.47;;;14.70;71.30;;;;;;5079695;28;20079;-48
2022/04/30 13:18:31;;;;;;;6.18;4.57;;;14.80;70.20;;;;;;5083920;28;20102;-48
2022/04/30 13:20:58;;;;;;;7.82;5.00;;;15.00;70.80;;;;;;5079968;28;20049;-49
2022/04/30 13:23:24;;;;;;;5.63;4.63;;;15.00;70.70;;;;;;5085433;28;20040;-54
2022/04/30 13:25:51;;;;;;;8.05;4.57;;;15.00;70.50;;;;;;5091681;28;20047;-53
2022/04/30 13:28:18;;;;;;;6.82;4.70;;;15.10;70.70;;;;;;5092767;28;20563;-51
2022/04/30 13:30:45;;;;;;;8.32;4.63;;;15.00;67.70;;;;;;5081887;28;20037;-52
2022/04/30 13:33:12;;;;;;;11.30;4.95;;;14.90;69.00;;;;;;5075731;28;20054;-53
2022/04/30 13:35:39;;;;;;;6.70;4.90;;;14.90;68.90;;;;;;5079211;28;20032;-53
2022/04/30 13:38:05;;;;;;;8.00;4.60;;;14.90;67.80;;;;;;5081518;28;20056;-51
2022/04/30 13:40:32;;;;;;;8.80;4.47;;;14.90;67.90;;;;;;5081628;28;20048;-51
2022/04/30 13:42:59;;;;;;;11.07;4.50;;;15.00;67.10;;;;;;5075156;28;20049;-51
2022/04/30 13:45:26;;;;;;;7.85;5.30;;;15.10;67.90;;;;;;5091310;28;20044;-50
2022/04/30 13:47:52;;;;;;;7.40;4.13;;;15.20;68.10;;;;;;5083602;28;20079;-54
2022/04/30 13:50:19;;;;;;;7.57;4.25;;;15.30;67.70;;;;;;5081399;28;20037;-51
2022/04/30 13:52:46;;;;;;;7.65;4.32;;;15.40;67.20;;;;;;5078743;28;20434;-51
2022/04/30 13:55:13;;;;;;;6.55;4.30;;;15.50;66.30;;;;;;5086640;28;20036;-51
2022/04/30 13:57:40;;;;;;;11.23;5.40;;;15.60;66.10;;;;;;5084497;28;20036;-52
2022/04/30 14:00:07;;;;;;;6.05;4.88;;;15.60;66.00;;;;;;5080246;28;20040;-47
2022/04/30 14:02:33;;;;;;;9.48;5.50;;;15.60;67.60;;;;;;5082808;28;20064;-53
2022/04/30 14:05:00;;;;;;;7.68;5.07;;;15.60;66.20;;;;;;5087752;28;20031;-55
2022/04/30 14:07:27;;;;;;;7.40;5.18;;;15.70;65.80;;;;;;5087489;28;20563;-53
2022/04/30 14:09:54;;;;;;;8.57;4.85;;;15.70;66.00;;;;;;5089288;28;20040;-51
2022/04/30 14:12:40;;;;;;;7.38;5.25;;;15.70;66.70;;;;;;5085057;28;20036;-51
2022/04/30 14:15:09;;;;;;;7.40;5.68;;;15.80;64.80;;;;;;5082590;28;20073;-50
2022/04/30 14:20:22;;;;;;;7.95;5.10;;;15.80;64.50;;;;;;5095906;28;20048;-49
2022/04/30 14:22:49;;;;;;;7.45;5.00;;;15.70;64.50;;;;;;5093726;28;20051;-52
2022/04/30 14:25:16;;;;;;;8.57;5.15;;;15.90;64.70;;;;;;5095996;28;20040;-55
2022/04/30 14:27:43;;;;;;;7.70;5.03;;;15.90;64.40;;;;;;5096269;28;20119;-54
2022/04/30 14:30:14;;;;;;;13.45;5.80;;;16.00;64.40;;;;;;5095915;28;20036;-51
2022/04/30 14:32:41;;;;;;;7.47;5.00;;;15.90;63.40;;;;;;5076179;28;20032;-51
2022/04/30 14:35:08;;;;;;;6.20;4.93;;;15.90;64.30;;;;;;5076192;28;20095;-52
2022/04/30 14:37:35;;;;;;;6.78;4.50;;;16.00;63.90;;;;;;5076178;28;20040;-54
2022/04/30 14:40:02;;;;;;;6.70;5.07;;;16.10;63.90;;;;;;5076093;28;20048;-53
2022/04/30 14:42:28;;;;;;;8.27;5.13;;;16.10;64.20;;;;;;5075931;28;20045;-52
2022/04/30 14:44:55;;;;;;;9.75;5.05;;;16.20;62.10;;;;;;5095621;28;20047;-50
2022/04/30 14:47:22;;;;;;;8.73;5.65;;;16.30;63.20;;;;;;5095483;28;20095;-51
2022/04/30 14:50:04;;;;;;;6.78;4.57;;;16.50;62.90;;;;;;5094120;28;20109;-50
2022/04/30 14:52:31;;;;;;;7.22;4.50;;;16.60;63.00;;;;;;5095311;28;20092;-49
2022/04/30 14:54:58;;;;;;;7.22;5.15;;;16.60;61.80;;;;;;5095370;28;20040;-51
2022/04/30 14:57:25;;;;;;;8.55;5.05;;;16.70;61.80;;;;;;5095102;28;20085;-49
2022/04/30 14:59:52;;;;;;;10.85;4.85;;;16.70;62.00;;;;;;5095016;28;20119;-48
2022/04/30 15:02:19;;;;;;;6.95;4.72;;;16.80;63.40;;;;;;5095041;28;20062;-48
2022/04/30 15:04:46;;;;;;;9.35;5.50;;;16.90;62.60;;;;;;5095209;28;20032;-49
2022/04/30 15:07:13;;;;;;;7.70;5.03;;;16.90;61.40;;;;;;5095055;28;20040;-49
2022/04/30 15:09:40;;;;;;;8.25;4.53;;;16.80;60.90;;;;;;5095125;28;20487;-51
2022/04/30 15:12:07;;;;;;;8.15;5.55;;;16.80;61.90;;;;;;5093515;28;20483;-48
2022/04/30 15:14:34;;;;;;;7.50;5.63;;;16.90;61.40;;;;;;5094900;28;20040;-50
2022/04/30 15:17:01;;;;;;;8.60;5.13;;;16.90;60.60;;;;;;5094836;28;20044;-55
2022/04/30 15:19:28;;;;;;;8.57;5.60;;;16.90;61.20;;;;;;5093904;28;20123;-53
2022/04/30 15:21:55;;;;;;;10.00;5.22;;;17.00;61.50;;;;;;5094516;28;20055;-52
2022/04/30 15:24:22;;;;;;;8.35;5.03;;;17.10;61.60;;;;;;5093440;28;20612;-52
2022/04/30 15:26:49;;;;;;;6.63;4.90;;;17.10;61.30;;;;;;5094644;28;20036;-47
2022/04/30 15:29:16;;;;;;;6.80;5.05;;;17.20;60.50;;;;;;5094701;28;20040;-54
2022/04/30 15:31:42;;;;;;;9.05;5.00;;;17.20;60.40;;;;;;5093146;28;20062;-54
2022/04/30 15:34:12;;;;;;;7.10;4.75;;;17.20;60.00;;;;;;5094666;28;20479;-50
2022/04/30 15:36:42;;;;;;;7.75;4.88;;;17.20;59.00;;;;;;5093254;28;20105;-56
2022/04/30 15:39:09;;;;;;;7.43;5.10;;;17.10;59.70;;;;;;5094254;28;20040;-51
2022/04/30 15:41:36;;;;;;;5.88;4.10;;;16.90;59.80;;;;;;5094073;28;20391;-50
2022/04/30 15:44:03;;;;;;;8.02;4.80;;;16.80;59.50;;;;;;5094211;28;20479;-55
2022/04/30 15:52:01;;;;;;;6.73;4.50;;;17.10;58.40;;;;;;5093871;28;19927;-52
2022/04/30 15:54:27;;;;;;;6.95;4.60;;;17.30;59.60;;;;;;5094133;28;20334;-50
2022/04/30 15:56:54;;;;;;;7.43;4.70;;;17.50;58.40;;;;;;5094006;28;20051;-53
2022/04/30 15:59:21;;;;;;;6.20;4.57;;;17.50;57.80;;;;;;5074594;28;20045;-53
2022/04/30 16:01:48;;;;;;;9.85;4.82;;;17.60;57.90;;;;;;5087230;28;20492;-52
2022/04/30 16:04:15;;;;;;;7.38;4.70;;;17.70;57.30;;;;;;5093765;28;20494;-48
2022/04/30 16:06:42;;;;;;;6.25;4.55;;;17.90;57.20;;;;;;5093801;28;20135;-50
2022/04/30 16:09:09;;;;;;;14.85;10.65;;;18.30;55.50;;;;;;5093803;28;20074;-51
2022/04/30 16:11:35;;;;;;;48.80;43.72;;;18.80;54.70;;;;;;5093459;28;20437;-52
2022/04/30 16:14:02;;;;;;;7.68;6.57;;;19.40;52.90;;;;;;5093708;28;20557;-52
2022/04/30 16:16:31;;;;;;;7.32;5.47;;;19.70;52.40;;;;;;5093735;28;20047;-55
2022/04/30 16:19:01;;;;;;;7.45;5.20;;;19.90;51.70;;;;;;5093293;28;20376;-53
2022/04/30 16:21:28;;;;;;;6.57;4.43;;;19.90;50.00;;;;;;5092849;28;20044;-54
2022/04/30 16:24:00;;;;;;;10.52;5.13;;;19.50;50.20;;;;;;5074154;28;20049;-53
2022/04/30 16:26:28;;;;;;;7.78;4.50;;;19.20;50.50;;;;;;5073904;28;20094;-47
2022/04/30 16:28:55;;;;;;;6.97;4.95;;;18.90;50.90;;;;;;5073273;28;20044;-47
2022/04/30 16:31:22;;;;;;;7.70;5.38;;;18.80;50.60;;;;;;5074238;28;20040;-50
2022/04/30 16:33:49;;;;;;;7.88;4.78;;;18.50;50.90;;;;;;5074127;28;20040;-48
2022/04/30 16:36:16;;;;;;;8.27;4.95;;;18.40;50.90;;;;;;5073916;28;20044;-46
2022/04/30 16:38:43;;;;;;;6.78;5.00;;;18.30;51.50;;;;;;5072613;28;20060;-47
2022/04/30 16:41:10;;;;;;;6.80;4.63;;;18.20;50.50;;;;;;5087069;28;20059;-54
2022/04/30 16:43:40;;;;;;;6.32;4.53;;;18.10;51.50;;;;;;5093246;28;20050;-48
2022/04/30 16:46:08;;;;;;;6.70;4.25;;;18.10;51.50;;;;;;5091664;28;20048;-48
2022/04/30 16:48:35;;;;;;;6.72;4.93;;;18.00;51.30;;;;;;5093137;28;20051;-51
2022/04/30 16:53:47;;;;;;;;;;;17.80;52.90;;;;;;5093416;28;20462;-47
2022/04/30 16:59:19;;;;;;;6.57;3.72;;;17.70;54.00;;;;;;5073667;28;20506;-47
2022/04/30 17:01:47;;;;;;;6.93;4.28;;;17.70;53.90;;;;;;5073377;28;20044;-52
2022/04/30 17:04:15;;;;;;;8.98;4.30;;;17.70;53.60;;;;;;5073614;28;20051;-49
2022/04/30 17:06:41;;;;;;;5.72;4.25;;;17.70;53.50;;;;;;5073477;28;20067;-46
2022/04/30 17:09:08;;;;;;;8.13;4.43;;;17.70;52.40;;;;;;5073443;28;20044;-54
2022/04/30 17:11:35;;;;;;;8.18;4.25;;;17.60;53.20;;;;;;5073255;28;20079;-53
2022/04/30 17:14:01;;;;;;;6.88;3.53;;;17.60;53.90;;;;;;5073414;28;20048;-50
2022/04/30 17:16:28;;;;;;;7.35;4.10;;;17.50;54.30;;;;;;5073399;28;20064;-53
2022/04/30 17:18:56;;;;;;;5.95;3.97;;;17.50;54.30;;;;;;5073418;28;20051;-53
2022/04/30 17:21:23;;;;;;;6.20;4.50;;;17.40;53.90;;;;;;5090792;28;20139;-55
2022/04/30 17:23:49;;;;;;;5.15;3.70;;;17.40;54.20;;;;;;5092699;28;20093;-52
2022/04/30 17:26:16;;;;;;;7.30;4.20;;;17.30;54.90;;;;;;5092657;28;20052;-52
2022/04/30 17:28:43;;;;;;;7.18;3.40;;;17.20;55.60;;;;;;5092780;28;20035;-50
2022/04/30 17:39:26;;;;;;;5.97;3.95;;;17.10;55.50;;;;;;5092525;28;20394;-54
2022/04/30 17:41:53;;;;;;;9.55;3.95;;;17.10;56.20;;;;;;5095551;28;20036;-53
2022/04/30 17:44:20;;;;;;;7.50;4.15;;;17.10;55.20;;;;;;5096546;28;20115;-49
2022/04/30 17:46:46;;;;;;;24.75;13.15;;;17.00;54.60;;;;;;5096737;28;20429;-49
2022/04/30 17:49:13;;;;;;;16.90;9.52;;;16.90;55.10;;;;;;5096604;28;20046;-56
2022/04/30 17:51:42;;;;;;;59.20;35.20;;;16.90;55.00;;;;;;5096417;28;20036;-51
2022/04/30 17:54:08;;;;;;;53.15;25.33;;;16.80;55.60;;;;;;5096536;28;20040;-52
2022/04/30 17:56:35;;;;;;;99.32;42.15;;;16.80;56.00;;;;;;5096277;28;20036;-52
2022/04/30 17:59:02;;;;;;;51.75;27.70;;;16.80;56.40;;;;;;5096208;28;20043;-50
2022/04/30 18:01:30;;;;;;;52.85;32.83;;;16.80;56.20;;;;;;5096238;28;20067;-53
2022/04/30 18:03:57;;;;;;;24.30;15.80;;;16.80;56.50;;;;;;5096120;28;20040;-51
2022/04/30 18:06:24;;;;;;;24.40;17.10;;;16.80;56.00;;;;;;5094617;28;20477;-49
2022/04/30 18:08:51;;;;;;;15.55;12.85;;;16.80;55.40;;;;;;5095972;28;20040;-50
2022/04/30 18:11:18;;;;;;;7.90;4.78;;;16.70;56.80;;;;;;5095733;28;20115;-53
2022/04/30 18:13:44;;;;;;;8.68;5.10;;;16.70;56.70;;;;;;5095760;28;20059;-47
2022/04/30 18:16:11;;;;;;;6.25;4.30;;;16.70;57.10;;;;;;5095866;28;20041;-51
2022/04/30 18:18:39;;;;;;;8.40;4.15;;;16.60;58.40;;;;;;5095818;28;20040;-47
2022/04/30 18:21:07;;;;;;;6.35;3.70;;;16.60;60.10;;;;;;5094849;28;20125;-51
2022/04/30 18:23:34;;;;;;;9.50;3.60;;;16.50;61.10;;;;;;5095996;28;20040;-47
2022/04/30 18:26:00;;;;;;;5.70;3.70;;;16.50;61.80;;;;;;5094641;28;20106;-47
2022/04/30 18:28:28;;;;;;;8.68;3.55;;;16.40;62.50;;;;;;5095646;28;20044;-48
2022/04/30 18:31:03;;;;;;;6.47;3.33;;;16.40;63.00;;;;;;5094566;28;20040;-49
2022/04/30 18:33:30;;;;;;;6.80;3.40;;;16.40;63.10;;;;;;5095685;28;20421;-48
2022/04/30 18:35:57;;;;;;;8.50;3.40;;;16.30;63.10;;;;;;5095748;28;20077;-50
2022/04/30 18:38:24;;;;;;;6.00;3.50;;;16.30;63.60;;;;;;5095559;28;20096;-54
2022/04/30 18:40:52;;;;;;;8.00;3.58;;;16.30;64.20;;;;;;5095362;28;20482;-49
2022/04/30 18:43:19;;;;;;;10.70;3.80;;;16.30;64.30;;;;;;5095424;28;20131;-54
2022/04/30 18:45:48;;;;;;;9.73;4.68;;;16.10;67.40;;;;;;5095471;28;20055;-52
2022/04/30 18:48:15;;;;;;;5.72;3.90;;;16.00;70.70;;;;;;5093913;28;20036;-50
2022/04/30 18:50:42;;;;;;;8.20;4.88;;;16.00;71.60;;;;;;5095427;28;20044;-54
2022/04/30 18:53:09;;;;;;;6.32;4.32;;;15.90;74.10;;;;;;5094571;28;20059;-52
2022/04/30 19:01:07;;;;;;;7.35;4.65;;;15.60;79.50;;;;;;5094895;28;20120;-52
2022/04/30 19:03:35;;;;;;;8.57;5.15;;;15.60;81.20;;;;;;5094728;28;20032;-50
2022/04/30 19:06:02;;;;;;;8.85;5.10;;;15.50;81.70;;;;;;5093571;28;20417;-50
2022/04/30 19:08:29;;;;;;;10.55;5.57;;;15.40;82.90;;;;;;5095028;28;20495;-51
2022/04/30 19:10:56;;;;;;;9.20;5.20;;;15.30;84.20;;;;;;5081489;28;20110;-51
2022/04/30 19:13:23;;;;;;;9.88;5.60;;;15.20;84.60;;;;;;5075353;28;20033;-52
2022/04/30 19:15:50;;;;;;;10.55;5.45;;;15.10;85.00;;;;;;5075354;28;20036;-51
2022/04/30 19:18:16;;;;;;;8.52;5.05;;;15.00;85.40;;;;;;5075134;28;20041;-53
2022/04/30 19:20:45;;;;;;;9.48;5.45;;;15.00;86.00;;;;;;5087579;28;20144;-48
2022/04/30 19:23:11;;;;;;;11.32;5.28;;;14.90;86.40;;;;;;5094594;28;20490;-47
2022/04/30 19:25:38;;;;;;;11.73;5.97;;;14.90;86.60;;;;;;5094520;28;20044;-51
2022/04/30 19:28:05;;;;;;;10.48;5.30;;;14.90;86.90;;;;;;5094763;28;20040;-54
2022/04/30 19:30:32;;;;;;;10.43;5.53;;;14.80;87.70;;;;;;5094699;28;20043;-52
2022/04/30 19:32:59;;;;;;;8.88;5.40;;;14.70;87.80;;;;;;5074833;28;20087;-54
2022/04/30 19:35:27;;;;;;;9.20;5.20;;;14.70;87.90;;;;;;5074982;28;20033;-54
2022/04/30 19:37:55;;;;;;;10.10;5.50;;;14.60;88.10;;;;;;5074339;28;20037;-50
2022/04/30 19:40:22;;;;;;;6.93;5.30;;;14.50;88.60;;;;;;5081312;28;20368;-53
2022/04/30 19:42:51;;;;;;;10.38;6.00;;;14.50;88.80;;;;;;5094382;28;20036;-51
2022/04/30 19:45:21;;;;;;;10.25;5.80;;;14.40;89.00;;;;;;5074599;28;20036;-48
2022/04/30 19:47:47;;;;;;;8.88;5.68;;;14.40;89.40;;;;;;5087782;28;20109;-53
2022/04/30 19:50:14;;;;;;;8.07;5.70;;;14.30;89.50;;;;;;5094292;28;20097;-49
2022/04/30 19:52:44;;;;;;;11.27;5.57;;;14.30;89.80;;;;;;5074390;28;20040;-48
2022/04/30 19:55:13;;;;;;;11.27;5.57;;;14.20;89.90;;;;;;5087735;28;20130;-55
2022/04/30 19:57:41;;;;;;;11.43;5.70;;;14.10;90.10;;;;;;5074516;28;20059;-51
2022/04/30 20:00:08;;;;;;;8.30;5.10;;;14.10;90.20;;;;;;5073266;28;20043;-51
2022/04/30 20:02:36;;;;;;;10.20;5.38;;;14.10;90.20;;;;;;5074232;28;20037;-50
2022/04/30 20:05:04;;;;;;;7.13;5.13;;;14.00;90.30;;;;;;5074052;28;20037;-52
2022/04/30 20:07:30;;;;;;;8.32;5.50;;;14.00;90.30;;;;;;5092509;28;20040;-53
2022/04/30 20:16:48;;;;;;;10.48;5.45;;;14.00;90.30;;;;;;5094276;28;20449;-56
2022/04/30 20:18:15;;;;;;;10.82;6.13;;;13.90;90.30;;;;;;5094076;28;20039;-54
2022/04/30 20:20:42;;;;;;;9.93;5.63;;;13.80;90.30;;;;;;5092838;28;20126;-48
2022/04/30 20:23:09;;;;;;;11.50;6.18;;;13.80;90.30;;;;;;5093691;28;20105;-48
2022/04/30 20:25:35;;;;;;;8.10;6.20;;;13.70;90.40;;;;;;5093803;28;20040;-55
2022/04/30 20:28:03;;;;;;;10.35;5.78;;;13.70;90.30;;;;;;5093674;28;20043;-48
2022/04/30 20:30:29;;;;;;;12.75;6.47;;;13.70;90.40;;;;;;5092962;28;20047;-52
2022/04/30 20:38:27;;;;;;;9.52;5.82;;;13.60;90.60;;;;;;5073971;28;20044;-46
2022/04/30 20:40:54;;;;;;;8.13;5.50;;;13.60;90.60;;;;;;5074341;28;20041;-49
2022/04/30 20:43:21;;;;;;;11.35;5.82;;;13.60;90.60;;;;;;5073519;28;20041;-49
2022/04/30 20:45:48;;;;;;;12.40;6.45;;;13.60;90.70;;;;;;5084300;28;20044;-48
2022/04/30 20:48:15;;;;;;;10.63;5.93;;;13.60;90.70;;;;;;5080121;28;20036;-47
2022/04/30 20:50:41;;;;;;;8.32;5.68;;;13.50;90.70;;;;;;5081985;28;20048;-49
2022/04/30 20:53:08;;;;;;;12.50;6.30;;;13.60;90.80;;;;;;5073803;28;20036;-50
2022/04/30 20:55:35;;;;;;;9.32;6.07;;;13.60;90.70;;;;;;5086066;28;20086;-49
2022/04/30 20:58:02;;;;;;;11.35;6.13;;;13.50;90.80;;;;;;5083399;28;20464;-49
2022/04/30 21:00:29;;;;;;;9.50;6.78;;;13.60;90.90;;;;;;5088557;28;20433;-50
2022/04/30 21:02:56;;;;;;;10.13;6.15;;;13.50;90.90;;;;;;5082347;28;20048;-48
2022/04/30 21:05:23;;;;;;;12.18;6.70;;;13.50;91.10;;;;;;5075981;28;20055;-48
2022/04/30 21:07:50;;;;;;;10.23;6.45;;;13.40;91.10;;;;;;5084324;28;20048;-47
2022/04/30 21:10:17;;;;;;;12.25;6.68;;;13.40;91.10;;;;;;5078890;28;20072;-51
2022/04/30 21:12:44;;;;;;;9.95;7.22;;;13.40;91.20;;;;;;5080065;28;20045;-48
2022/04/30 21:15:11;;;;;;;11.75;6.50;;;13.40;91.30;;;;;;5076279;28;20537;-48
2022/04/30 21:17:37;;;;;;;9.77;6.82;;;13.40;91.30;;;;;;5073502;28;20098;-53
2022/04/30 21:20:04;;;;;;;10.05;7.32;;;13.40;91.30;;;;;;5073339;28;20044;-52
2022/04/30 21:22:31;;;;;;;12.35;7.25;;;13.40;91.60;;;;;;5092697;28;20050;-51
2022/04/30 21:24:57;;;;;;;16.05;7.50;;;13.30;91.50;;;;;;5077181;28;20077;-52
2022/04/30 21:27:24;;;;;;;12.57;7.10;;;13.30;91.50;;;;;;5090839;28;20463;-50
2022/04/30 21:29:51;;;;;;;13.90;7.53;;;13.30;91.60;;;;;;5083166;28;20094;-55
2022/04/30 21:32:18;;;;;;;11.35;7.53;;;13.30;91.60;;;;;;5080808;28;20048;-53
2022/04/30 21:34:47;;;;;;;11.98;7.43;;;13.20;91.70;;;;;;5092597;28;20047;-49
2022/04/30 21:37:14;;;;;;;11.02;7.30;;;13.20;91.90;;;;;;5092678;28;20498;-52
2022/04/30 21:39:41;;;;;;;9.50;7.22;;;13.10;92.00;;;;;;5092573;28;20036;-52
2022/04/30 21:42:08;;;;;;;10.23;7.15;;;13.10;92.00;;;;;;5091163;28;20047;-51
2022/04/30 21:44:36;;;;;;;11.70;7.63;;;13.10;92.20;;;;;;5092617;28;20072;-56
2022/04/30 21:47:04;;;;;;;11.18;7.32;;;13.00;92.30;;;;;;5091885;28;20048;-51
2022/04/30 21:49:31;;;;;;;12.35;7.95;;;13.00;92.40;;;;;;5090338;28;20098;-49
2022/04/30 21:52:00;;;;;;;12.45;7.88;;;12.90;92.50;;;;;;5077177;28;20041;-55
2022/04/30 21:59:48;;;;;;;12.95;8.73;;;12.90;92.50;;;;;;5089986;28;20059;-51
2022/04/30 22:00:00;;;;;;;13.85;8.07;;;12.90;92.60;;;;;;5073078;28;20483;-55
2022/04/30 22:02:27;;;;;;;11.15;8.02;;;12.80;92.70;;;;;;5076763;28;20037;-50
2022/04/30 22:04:54;;;;;;;9.77;7.60;;;12.80;92.60;;;;;;5088238;28;20042;-52
2022/04/30 22:07:20;;;;;;;12.05;7.85;;;12.80;92.80;;;;;;5092297;28;20036;-54
2022/04/30 22:09:50;;;;;;;15.65;8.30;;;12.80;92.80;;;;;;5091637;28;20434;-54
2022/04/30 22:12:19;;;;;;;10.82;8.20;;;12.80;92.90;;;;;;5092292;28;20050;-55
2022/04/30 22:14:46;;;;;;;15.20;8.88;;;12.70;92.90;;;;;;5091136;28;20036;-48
2022/04/30 22:17:13;;;;;;;14.45;9.05;;;12.70;93.10;;;;;;5091570;28;20044;-51
2022/04/30 22:19:39;;;;;;;14.20;8.57;;;12.70;93.10;;;;;;5091498;28;20079;-52
2022/04/30 22:22:06;;;;;;;12.80;8.77;;;12.70;93.00;;;;;;5089524;28;20071;-52
2022/04/30 22:24:33;;;;;;;14.13;8.38;;;12.70;93.10;;;;;;5072773;28;20040;-55
2022/04/30 22:27:00;;;;;;;12.18;8.40;;;12.70;93.10;;;;;;5077854;28;20048;-53
2022/04/30 22:29:27;;;;;;;12.82;9.20;;;12.60;93.10;;;;;;5077694;28;20090;-53
2022/04/30 22:31:55;;;;;;;11.57;8.38;;;12.60;93.20;;;;;;5095598;28;20051;-51
2022/04/30 22:34:22;;;;;;;12.10;8.32;;;12.50;93.30;;;;;;5087761;28;20078;-52
2022/04/30 22:36:49;;;;;;;15.70;8.93;;;12.50;93.30;;;;;;5079915;28;20040;-53
2022/04/30 22:39:16;;;;;;;11.45;8.38;;;12.40;93.40;;;;;;5076393;28;20094;-55
2022/04/30 22:44:28;;;;;;;13.77;8.55;;;12.30;93.50;;;;;;5085925;28;20054;-52
2022/04/30 22:46:56;;;;;;;14.18;7.82;;;12.30;93.50;;;;;;5095577;28;20055;-54
2022/04/30 22:49:23;;;;;;;14.75;8.32;;;12.30;93.70;;;;;;5094391;28;20039;-51
2022/04/30 22:51:49;;;;;;;10.23;8.18;;;12.20;93.80;;;;;;5084971;28;20075;-53
2022/04/30 22:54:18;;;;;;;11.60;7.72;;;12.20;93.80;;;;;;5086781;28;20032;-56
2022/04/30 22:57:05;;;;;;;13.98;7.75;;;12.20;93.80;;;;;;5081464;28;20494;-51
2022/04/30 22:59:33;;;;;;;13.45;7.80;;;12.10;93.90;;;;;;5086672;28;20474;-50
2022/04/30 23:02:00;;;;;;;14.02;7.55;;;12.10;94.10;;;;;;5092485;28;20044;-53
2022/04/30 23:04:26;;;;;;;15.73;8.48;;;12.10;94.00;;;;;;5089727;28;20080;-55
2022/04/30 23:06:53;;;;;;;11.40;8.00;;;12.10;94.00;;;;;;5095323;28;20094;-49